sensor_id;sensor_type;location;lat;lon;timestamp;P1;durP1;ratioP1;P2;durP2;ratioP2
37701;SDS011;23548;51.196;6.838;2023-02-01T00:02:03;36.22;;;13.95;;
37701;SDS011;23548;51.196;6.838;2023-02-01T00:04:29;30.30;;;14.02;;
37701;SDS011;23548;51.196;6.838;2023-02-01T00:06:56;29.83;;;14.40;;
37701;SDS011;23548;51.196;6.838;2023-02-01T00:09:22;33.15;;;14.77;;
37701;SDS011;23548;51.196;6.838;2023-02-01T00:11:48;30.80;;;15.73;;
37701;SDS011;23548;51.196;6.838;2023-02-01T00:14:14;33.85;;;15.55;;
37701;SDS011;23548;51.196;6.838;2023-02-01T00:16:40;32.58;;;16.13;;
37701;SDS011;23548;51.196;6.838;2023-02-01T00:19:15;35.25;;;16.30;;
37701;SDS011;23548;51.196;6.838;2023-02-01T00:21:40;29.90;;;15.68;;
37701;SDS011;23548;51.196;6.838;2023-02-01T00:24:09;35.47;;;16.60;;
37701;SDS011;23548;51.196;6.838;2023-02-01T00:26:37;33.10;;;15.07;;
37701;SDS011;23548;51.196;6.838;2023-02-01T00:29:10;38.65;;;16.27;;
37701;SDS011;23548;51.196;6.838;2023-02-01T00:31:38;32.03;;;15.45;;
37701;SDS011;23548;51.196;6.838;2023-02-01T00:34:04;35.28;;;15.27;;
37701;SDS011;23548;51.196;6.838;2023-02-01T00:36:31;41.13;;;16.10;;
37701;SDS011;23548;51.196;6.838;2023-02-01T00:38:57;41.00;;;16.50;;
37701;SDS011;23548;51.196;6.838;2023-02-01T00:41:23;36.75;;;14.07;;
37701;SDS011;23548;51.196;6.838;2023-02-01T00:43:49;30.90;;;13.20;;
37701;SDS011;23548;51.196;6.838;2023-02-01T00:46:16;32.08;;;12.80;;
37701;SDS011;23548;51.196;6.838;2023-02-01T00:48:43;28.63;;;11.85;;
37701;SDS011;23548;51.196;6.838;2023-02-01T00:51:14;27.20;;;12.63;;
37701;SDS011;23548;51.196;6.838;2023-02-01T00:53:41;26.38;;;10.35;;
37701;SDS011;23548;51.196;6.838;2023-02-01T00:56:07;25.80;;;11.15;;
37701;SDS011;23548;51.196;6.838;2023-02-01T00:58:33;34.65;;;11.20;;
37701;SDS011;23548;51.196;6.838;2023-02-01T01:03:31;29.63;;;10.80;;
37701;SDS011;23548;51.196;6.838;2023-02-01T01:05:59;29.02;;;10.35;;
37701;SDS011;23548;51.196;6.838;2023-02-01T01:08:26;30.67;;;10.63;;
37701;SDS011;23548;51.196;6.838;2023-02-01T01:10:52;28.13;;;10.30;;
37701;SDS011;23548;51.196;6.838;2023-02-01T01:13:18;28.83;;;10.05;;
37701;SDS011;23548;51.196;6.838;2023-02-01T01:15:44;29.13;;;9.65;;
37701;SDS011;23548;51.196;6.838;2023-02-01T01:18:10;19.92;;;7.70;;
37701;SDS011;23548;51.196;6.838;2023-02-01T01:20:37;24.77;;;7.63;;
37701;SDS011;23548;51.196;6.838;2023-02-01T01:23:05;19.23;;;7.55;;
37701;SDS011;23548;51.196;6.838;2023-02-01T01:25:31;22.92;;;7.07;;
37701;SDS011;23548;51.196;6.838;2023-02-01T01:27:58;24.00;;;7.30;;
37701;SDS011;23548;51.196;6.838;2023-02-01T01:30:23;23.15;;;6.85;;
37701;SDS011;23548;51.196;6.838;2023-02-01T01:32:49;21.85;;;7.10;;
37701;SDS011;23548;51.196;6.838;2023-02-01T01:35:17;19.63;;;5.95;;
37701;SDS011;23548;51.196;6.838;2023-02-01T01:37:43;21.00;;;7.20;;
37701;SDS011;23548;51.196;6.838;2023-02-01T01:40:09;17.65;;;5.85;;
37701;SDS011;23548;51.196;6.838;2023-02-01T01:42:37;17.60;;;6.10;;
37701;SDS011;23548;51.196;6.838;2023-02-01T01:45:18;21.77;;;6.30;;
37701;SDS011;23548;51.196;6.838;2023-02-01T01:47:52;21.27;;;5.20;;
37701;SDS011;23548;51.196;6.838;2023-02-01T01:51:13;17.40;;;5.40;;
37701;SDS011;23548;51.196;6.838;2023-02-01T01:53:31;20.25;;;6.28;;
37701;SDS011;23548;51.196;6.838;2023-02-01T01:56:03;19.02;;;5.20;;
37701;SDS011;23548;51.196;6.838;2023-02-01T01:58:29;16.75;;;4.40;;
37701;SDS011;23548;51.196;6.838;2023-02-01T02:00:58;23.00;;;5.50;;
37701;SDS011;23548;51.196;6.838;2023-02-01T02:03:30;14.98;;;4.63;;
37701;SDS011;23548;51.196;6.838;2023-02-01T02:06:00;21.85;;;5.10;;
37701;SDS011;23548;51.196;6.838;2023-02-01T02:11:51;18.83;;;5.25;;
37701;SDS011;23548;51.196;6.838;2023-02-01T02:14:17;22.52;;;5.22;;
37701;SDS011;23548;51.196;6.838;2023-02-01T02:22:31;21.85;;;4.70;;
37701;SDS011;23548;51.196;6.838;2023-02-01T02:34:14;17.23;;;4.85;;
37701;SDS011;23548;51.196;6.838;2023-02-01T02:39:26;17.77;;;4.30;;
37701;SDS011;23548;51.196;6.838;2023-02-01T02:41:59;13.80;;;4.25;;
37701;SDS011;23548;51.196;6.838;2023-02-01T02:48:48;23.25;;;4.85;;
37701;SDS011;23548;51.196;6.838;2023-02-01T02:50:43;17.90;;;4.28;;
37701;SDS011;23548;51.196;6.838;2023-02-01T02:53:34;18.73;;;4.80;;
37701;SDS011;23548;51.196;6.838;2023-02-01T02:56:25;18.58;;;5.45;;
37701;SDS011;23548;51.196;6.838;2023-02-01T02:59:11;21.52;;;4.70;;
37701;SDS011;23548;51.196;6.838;2023-02-01T03:01:58;22.45;;;5.05;;
37701;SDS011;23548;51.196;6.838;2023-02-01T03:04:42;23.25;;;4.90;;
37701;SDS011;23548;51.196;6.838;2023-02-01T03:07:13;22.92;;;5.00;;
37701;SDS011;23548;51.196;6.838;2023-02-01T03:09:57;23.73;;;4.72;;
37701;SDS011;23548;51.196;6.838;2023-02-01T03:12:29;24.33;;;5.07;;
37701;SDS011;23548;51.196;6.838;2023-02-01T03:15:17;20.67;;;5.57;;
37701;SDS011;23548;51.196;6.838;2023-02-01T03:17:47;21.77;;;5.30;;
37701;SDS011;23548;51.196;6.838;2023-02-01T03:20:15;21.05;;;4.65;;
37701;SDS011;23548;51.196;6.838;2023-02-01T03:22:44;19.00;;;4.82;;
37701;SDS011;23548;51.196;6.838;2023-02-01T03:25:17;30.80;;;5.38;;
37701;SDS011;23548;51.196;6.838;2023-02-01T03:27:52;21.95;;;4.75;;
37701;SDS011;23548;51.196;6.838;2023-02-01T03:30:26;24.63;;;5.63;;
37701;SDS011;23548;51.196;6.838;2023-02-01T03:32:55;20.85;;;4.65;;
37701;SDS011;23548;51.196;6.838;2023-02-01T03:36:11;18.92;;;5.00;;
37701;SDS011;23548;51.196;6.838;2023-02-01T03:40:52;28.13;;;5.75;;
37701;SDS011;23548;51.196;6.838;2023-02-01T03:43:23;20.02;;;5.32;;
37701;SDS011;23548;51.196;6.838;2023-02-01T03:45:57;19.38;;;4.65;;
37701;SDS011;23548;51.196;6.838;2023-02-01T03:48:28;24.70;;;4.55;;
37701;SDS011;23548;51.196;6.838;2023-02-01T03:50:55;18.65;;;4.57;;
37701;SDS011;23548;51.196;6.838;2023-02-01T03:53:26;14.90;;;4.78;;
37701;SDS011;23548;51.196;6.838;2023-02-01T03:55:53;24.55;;;5.05;;
37701;SDS011;23548;51.196;6.838;2023-02-01T03:58:20;18.48;;;4.00;;
37701;SDS011;23548;51.196;6.838;2023-02-01T04:00:54;24.55;;;4.60;;
37701;SDS011;23548;51.196;6.838;2023-02-01T04:03:25;19.08;;;4.70;;
37701;SDS011;23548;51.196;6.838;2023-02-01T04:05:52;19.15;;;4.65;;
37701;SDS011;23548;51.196;6.838;2023-02-01T04:08:19;18.90;;;4.05;;
37701;SDS011;23548;51.196;6.838;2023-02-01T04:10:45;23.00;;;4.82;;
37701;SDS011;23548;51.196;6.838;2023-02-01T04:13:11;24.33;;;4.38;;
37701;SDS011;23548;51.196;6.838;2023-02-01T04:15:37;23.63;;;4.35;;
37701;SDS011;23548;51.196;6.838;2023-02-01T04:18:03;19.95;;;5.45;;
37701;SDS011;23548;51.196;6.838;2023-02-01T04:20:29;20.08;;;4.63;;
37701;SDS011;23548;51.196;6.838;2023-02-01T04:22:55;24.48;;;4.85;;
37701;SDS011;23548;51.196;6.838;2023-02-01T04:25:20;19.50;;;4.88;;
37701;SDS011;23548;51.196;6.838;2023-02-01T04:27:46;18.63;;;4.25;;
37701;SDS011;23548;51.196;6.838;2023-02-01T04:30:12;24.50;;;4.32;;
37701;SDS011;23548;51.196;6.838;2023-02-01T04:32:39;20.85;;;4.75;;
37701;SDS011;23548;51.196;6.838;2023-02-01T04:35:05;24.92;;;5.45;;
37701;SDS011;23548;51.196;6.838;2023-02-01T04:37:32;26.65;;;4.93;;
37701;SDS011;23548;51.196;6.838;2023-02-01T04:39:58;20.88;;;4.38;;
37701;SDS011;23548;51.196;6.838;2023-02-01T04:42:23;17.67;;;4.75;;
37701;SDS011;23548;51.196;6.838;2023-02-01T04:44:49;26.08;;;5.30;;
37701;SDS011;23548;51.196;6.838;2023-02-01T04:47:15;20.25;;;4.53;;
37701;SDS011;23548;51.196;6.838;2023-02-01T04:49:41;18.27;;;4.05;;
37701;SDS011;23548;51.196;6.838;2023-02-01T04:52:07;19.80;;;4.60;;
37701;SDS011;23548;51.196;6.838;2023-02-01T04:54:33;24.45;;;5.63;;
37701;SDS011;23548;51.196;6.838;2023-02-01T04:56:59;30.88;;;5.65;;
37701;SDS011;23548;51.196;6.838;2023-02-01T04:59:25;23.58;;;5.03;;
37701;SDS011;23548;51.196;6.838;2023-02-01T05:01:51;21.35;;;4.60;;
37701;SDS011;23548;51.196;6.838;2023-02-01T05:04:17;20.65;;;4.95;;
37701;SDS011;23548;51.196;6.838;2023-02-01T05:06:43;18.98;;;4.60;;
37701;SDS011;23548;51.196;6.838;2023-02-01T05:09:09;19.05;;;4.50;;
37701;SDS011;23548;51.196;6.838;2023-02-01T05:11:35;21.50;;;4.75;;
37701;SDS011;23548;51.196;6.838;2023-02-01T05:14:19;17.55;;;4.45;;
37701;SDS011;23548;51.196;6.838;2023-02-01T05:16:45;22.85;;;3.95;;
37701;SDS011;23548;51.196;6.838;2023-02-01T05:19:12;24.42;;;5.57;;
37701;SDS011;23548;51.196;6.838;2023-02-01T05:21:37;20.60;;;5.10;;
37701;SDS011;23548;51.196;6.838;2023-02-01T05:24:03;17.17;;;5.15;;
37701;SDS011;23548;51.196;6.838;2023-02-01T05:26:38;22.55;;;4.63;;
37701;SDS011;23548;51.196;6.838;2023-02-01T05:29:07;20.60;;;4.75;;
37701;SDS011;23548;51.196;6.838;2023-02-01T05:31:34;22.90;;;4.45;;
37701;SDS011;23548;51.196;6.838;2023-02-01T05:34:00;14.40;;;4.10;;
37701;SDS011;23548;51.196;6.838;2023-02-01T05:36:26;23.70;;;4.22;;
37701;SDS011;23548;51.196;6.838;2023-02-01T05:38:52;28.23;;;5.15;;
37701;SDS011;23548;51.196;6.838;2023-02-01T05:41:18;25.60;;;5.30;;
37701;SDS011;23548;51.196;6.838;2023-02-01T05:43:44;21.45;;;4.45;;
37701;SDS011;23548;51.196;6.838;2023-02-01T05:46:09;25.52;;;5.15;;
37701;SDS011;23548;51.196;6.838;2023-02-01T05:48:37;25.83;;;4.97;;
37701;SDS011;23548;51.196;6.838;2023-02-01T05:51:07;24.45;;;4.85;;
37701;SDS011;23548;51.196;6.838;2023-02-01T05:53:33;24.40;;;5.20;;
37701;SDS011;23548;51.196;6.838;2023-02-01T05:55:59;26.73;;;4.65;;
37701;SDS011;23548;51.196;6.838;2023-02-01T05:58:25;28.42;;;4.38;;
37701;SDS011;23548;51.196;6.838;2023-02-01T06:00:51;19.80;;;4.53;;
37701;SDS011;23548;51.196;6.838;2023-02-01T06:03:17;30.52;;;4.80;;
37701;SDS011;23548;51.196;6.838;2023-02-01T06:05:44;31.17;;;5.03;;
37701;SDS011;23548;51.196;6.838;2023-02-01T06:08:10;26.23;;;4.60;;
37701;SDS011;23548;51.196;6.838;2023-02-01T06:10:36;27.00;;;4.63;;
37701;SDS011;23548;51.196;6.838;2023-02-01T06:13:02;24.95;;;4.75;;
37701;SDS011;23548;51.196;6.838;2023-02-01T06:15:30;23.40;;;5.22;;
37701;SDS011;23548;51.196;6.838;2023-02-01T06:17:56;25.10;;;4.65;;
37701;SDS011;23548;51.196;6.838;2023-02-01T06:20:22;26.63;;;4.78;;
37701;SDS011;23548;51.196;6.838;2023-02-01T06:22:47;22.20;;;4.60;;
37701;SDS011;23548;51.196;6.838;2023-02-01T06:25:13;21.77;;;3.85;;
37701;SDS011;23548;51.196;6.838;2023-02-01T06:27:39;21.63;;;4.70;;
37701;SDS011;23548;51.196;6.838;2023-02-01T06:30:05;20.05;;;4.75;;
37701;SDS011;23548;51.196;6.838;2023-02-01T06:32:31;25.95;;;4.55;;
37701;SDS011;23548;51.196;6.838;2023-02-01T06:34:57;30.48;;;4.97;;
37701;SDS011;23548;51.196;6.838;2023-02-01T06:37:24;28.35;;;4.75;;
37701;SDS011;23548;51.196;6.838;2023-02-01T06:39:51;25.95;;;4.78;;
37701;SDS011;23548;51.196;6.838;2023-02-01T06:42:16;32.80;;;4.25;;
37701;SDS011;23548;51.196;6.838;2023-02-01T06:44:42;30.00;;;4.80;;
37701;SDS011;23548;51.196;6.838;2023-02-01T06:47:08;29.65;;;5.13;;
37701;SDS011;23548;51.196;6.838;2023-02-01T06:49:34;25.52;;;4.82;;
37701;SDS011;23548;51.196;6.838;2023-02-01T06:52:00;19.42;;;4.30;;
37701;SDS011;23548;51.196;6.838;2023-02-01T06:54:26;19.80;;;4.93;;
37701;SDS011;23548;51.196;6.838;2023-02-01T06:56:52;22.63;;;4.60;;
37701;SDS011;23548;51.196;6.838;2023-02-01T06:59:18;34.45;;;6.32;;
37701;SDS011;23548;51.196;6.838;2023-02-01T07:01:44;22.85;;;4.13;;
37701;SDS011;23548;51.196;6.838;2023-02-01T07:04:10;21.13;;;4.10;;
37701;SDS011;23548;51.196;6.838;2023-02-01T07:06:38;26.92;;;4.47;;
37701;SDS011;23548;51.196;6.838;2023-02-01T07:09:04;26.85;;;4.90;;
37701;SDS011;23548;51.196;6.838;2023-02-01T07:11:30;23.50;;;4.53;;
37701;SDS011;23548;51.196;6.838;2023-02-01T07:13:57;27.02;;;5.43;;
37701;SDS011;23548;51.196;6.838;2023-02-01T07:16:23;19.58;;;4.20;;
37701;SDS011;23548;51.196;6.838;2023-02-01T07:18:49;20.83;;;5.00;;
37701;SDS011;23548;51.196;6.838;2023-02-01T07:21:16;21.58;;;5.53;;
37701;SDS011;23548;51.196;6.838;2023-02-01T07:23:42;26.13;;;5.05;;
37701;SDS011;23548;51.196;6.838;2023-02-01T07:26:09;18.45;;;4.78;;
37701;SDS011;23548;51.196;6.838;2023-02-01T07:28:40;22.58;;;4.38;;
37701;SDS011;23548;51.196;6.838;2023-02-01T07:31:10;20.60;;;4.88;;
37701;SDS011;23548;51.196;6.838;2023-02-01T07:33:40;24.45;;;4.97;;
37701;SDS011;23548;51.196;6.838;2023-02-01T07:36:07;20.38;;;4.10;;
37701;SDS011;23548;51.196;6.838;2023-02-01T07:38:36;17.02;;;4.70;;
37701;SDS011;23548;51.196;6.838;2023-02-01T07:41:02;31.13;;;5.35;;
37701;SDS011;23548;51.196;6.838;2023-02-01T07:43:29;18.70;;;4.32;;
37701;SDS011;23548;51.196;6.838;2023-02-01T07:45:56;26.27;;;4.53;;
37701;SDS011;23548;51.196;6.838;2023-02-01T07:48:22;24.25;;;4.07;;
37701;SDS011;23548;51.196;6.838;2023-02-01T07:51:07;30.63;;;4.78;;
37701;SDS011;23548;51.196;6.838;2023-02-01T07:53:36;21.73;;;4.40;;
37701;SDS011;23548;51.196;6.838;2023-02-01T07:56:02;24.42;;;5.32;;
37701;SDS011;23548;51.196;6.838;2023-02-01T07:58:29;31.50;;;4.88;;
37701;SDS011;23548;51.196;6.838;2023-02-01T08:00:55;21.85;;;4.65;;
37701;SDS011;23548;51.196;6.838;2023-02-01T08:03:40;24.73;;;4.35;;
37701;SDS011;23548;51.196;6.838;2023-02-01T08:06:07;23.45;;;5.15;;
37701;SDS011;23548;51.196;6.838;2023-02-01T08:08:33;31.30;;;5.00;;
37701;SDS011;23548;51.196;6.838;2023-02-01T08:10:59;22.20;;;5.00;;
37701;SDS011;23548;51.196;6.838;2023-02-01T08:13:26;24.55;;;4.63;;
37701;SDS011;23548;51.196;6.838;2023-02-01T08:15:52;22.50;;;5.30;;
37701;SDS011;23548;51.196;6.838;2023-02-01T08:18:22;20.42;;;4.88;;
37701;SDS011;23548;51.196;6.838;2023-02-01T08:20:48;23.17;;;4.82;;
37701;SDS011;23548;51.196;6.838;2023-02-01T08:23:14;21.48;;;5.03;;
37701;SDS011;23548;51.196;6.838;2023-02-01T08:25:40;23.13;;;4.65;;
37701;SDS011;23548;51.196;6.838;2023-02-01T08:28:06;21.65;;;5.80;;
37701;SDS011;23548;51.196;6.838;2023-02-01T08:30:32;21.30;;;4.53;;
37701;SDS011;23548;51.196;6.838;2023-02-01T08:32:58;20.85;;;4.90;;
37701;SDS011;23548;51.196;6.838;2023-02-01T08:35:24;21.65;;;4.80;;
37701;SDS011;23548;51.196;6.838;2023-02-01T08:37:50;27.40;;;5.00;;
37701;SDS011;23548;51.196;6.838;2023-02-01T08:40:16;27.30;;;5.63;;
37701;SDS011;23548;51.196;6.838;2023-02-01T08:42:42;24.63;;;4.57;;
37701;SDS011;23548;51.196;6.838;2023-02-01T08:45:18;17.90;;;4.90;;
37701;SDS011;23548;51.196;6.838;2023-02-01T08:47:49;23.98;;;5.60;;
37701;SDS011;23548;51.196;6.838;2023-02-01T08:50:19;23.98;;;5.82;;
37701;SDS011;23548;51.196;6.838;2023-02-01T08:52:46;25.10;;;5.55;;
37701;SDS011;23548;51.196;6.838;2023-02-01T08:55:12;29.42;;;5.65;;
37701;SDS011;23548;51.196;6.838;2023-02-01T08:57:39;19.33;;;5.25;;
37701;SDS011;23548;51.196;6.838;2023-02-01T09:00:05;28.60;;;5.53;;
37701;SDS011;23548;51.196;6.838;2023-02-01T09:02:36;19.05;;;5.03;;
37701;SDS011;23548;51.196;6.838;2023-02-01T09:05:02;22.52;;;5.35;;
37701;SDS011;23548;51.196;6.838;2023-02-01T09:07:29;21.80;;;5.18;;
37701;SDS011;23548;51.196;6.838;2023-02-01T09:09:54;27.15;;;5.88;;
37701;SDS011;23548;51.196;6.838;2023-02-01T09:12:21;22.08;;;5.50;;
37701;SDS011;23548;51.196;6.838;2023-02-01T09:14:47;25.40;;;5.45;;
37701;SDS011;23548;51.196;6.838;2023-02-01T09:17:13;21.30;;;5.13;;
37701;SDS011;23548;51.196;6.838;2023-02-01T09:19:39;28.30;;;5.32;;
37701;SDS011;23548;51.196;6.838;2023-02-01T09:22:05;21.23;;;4.78;;
37701;SDS011;23548;51.196;6.838;2023-02-01T09:24:31;22.95;;;5.40;;
37701;SDS011;23548;51.196;6.838;2023-02-01T09:26:57;23.80;;;5.40;;
37701;SDS011;23548;51.196;6.838;2023-02-01T09:29:22;24.30;;;5.63;;
37701;SDS011;23548;51.196;6.838;2023-02-01T09:31:48;24.08;;;4.88;;
37701;SDS011;23548;51.196;6.838;2023-02-01T09:34:14;20.88;;;5.20;;
37701;SDS011;23548;51.196;6.838;2023-02-01T09:36:40;22.40;;;5.65;;
37701;SDS011;23548;51.196;6.838;2023-02-01T09:39:06;33.45;;;5.20;;
37701;SDS011;23548;51.196;6.838;2023-02-01T09:41:39;20.20;;;5.28;;
37701;SDS011;23548;51.196;6.838;2023-02-01T09:44:35;29.20;;;5.95;;
37701;SDS011;23548;51.196;6.838;2023-02-01T09:46:57;22.63;;;5.03;;
37701;SDS011;23548;51.196;6.838;2023-02-01T09:49:28;16.98;;;4.70;;
37701;SDS011;23548;51.196;6.838;2023-02-01T09:51:56;23.73;;;5.63;;
37701;SDS011;23548;51.196;6.838;2023-02-01T09:54:29;24.08;;;5.82;;
37701;SDS011;23548;51.196;6.838;2023-02-01T09:57:06;22.80;;;5.30;;
37701;SDS011;23548;51.196;6.838;2023-02-01T10:02:15;22.88;;;5.25;;
37701;SDS011;23548;51.196;6.838;2023-02-01T10:05:01;19.10;;;5.78;;
37701;SDS011;23548;51.196;6.838;2023-02-01T10:07:39;22.13;;;5.15;;
37701;SDS011;23548;51.196;6.838;2023-02-01T10:10:16;25.63;;;6.13;;
37701;SDS011;23548;51.196;6.838;2023-02-01T10:13:06;21.42;;;5.63;;
37701;SDS011;23548;51.196;6.838;2023-02-01T10:15:35;19.13;;;4.95;;
37701;SDS011;23548;51.196;6.838;2023-02-01T10:18:12;24.83;;;5.40;;
37701;SDS011;23548;51.196;6.838;2023-02-01T10:26:23;28.45;;;5.57;;
37701;SDS011;23548;51.196;6.838;2023-02-01T10:28:52;22.70;;;5.50;;
37701;SDS011;23548;51.196;6.838;2023-02-01T10:31:22;23.55;;;5.15;;
37701;SDS011;23548;51.196;6.838;2023-02-01T10:33:52;23.15;;;5.43;;
37701;SDS011;23548;51.196;6.838;2023-02-01T10:36:32;19.75;;;5.78;;
37701;SDS011;23548;51.196;6.838;2023-02-01T10:39:06;21.42;;;5.50;;
37701;SDS011;23548;51.196;6.838;2023-02-01T10:41:36;25.45;;;6.55;;
37701;SDS011;23548;51.196;6.838;2023-02-01T10:44:16;24.20;;;5.95;;
37701;SDS011;23548;51.196;6.838;2023-02-01T10:46:48;23.20;;;5.63;;
37701;SDS011;23548;51.196;6.838;2023-02-01T10:49:21;23.45;;;5.90;;
37701;SDS011;23548;51.196;6.838;2023-02-01T10:51:52;19.33;;;6.07;;
37701;SDS011;23548;51.196;6.838;2023-02-01T10:54:32;24.40;;;5.43;;
37701;SDS011;23548;51.196;6.838;2023-02-01T10:57:00;23.75;;;5.88;;
37701;SDS011;23548;51.196;6.838;2023-02-01T10:59:27;21.88;;;4.95;;
37701;SDS011;23548;51.196;6.838;2023-02-01T11:02:00;20.15;;;4.82;;
37701;SDS011;23548;51.196;6.838;2023-02-01T11:04:28;21.90;;;4.57;;
37701;SDS011;23548;51.196;6.838;2023-02-01T11:07:07;27.27;;;5.85;;
37701;SDS011;23548;51.196;6.838;2023-02-01T11:09:42;25.55;;;5.60;;
37701;SDS011;23548;51.196;6.838;2023-02-01T11:12:31;18.42;;;4.88;;
37701;SDS011;23548;51.196;6.838;2023-02-01T11:17:39;25.17;;;5.47;;
37701;SDS011;23548;51.196;6.838;2023-02-01T11:20:18;19.73;;;4.82;;
37701;SDS011;23548;51.196;6.838;2023-02-01T11:23:13;20.50;;;5.40;;
37701;SDS011;23548;51.196;6.838;2023-02-01T11:25:49;19.00;;;5.35;;
37701;SDS011;23548;51.196;6.838;2023-02-01T11:28:17;18.27;;;4.50;;
37701;SDS011;23548;51.196;6.838;2023-02-01T11:30:46;18.63;;;4.93;;
37701;SDS011;23548;51.196;6.838;2023-02-01T11:33:15;21.02;;;5.05;;
37701;SDS011;23548;51.196;6.838;2023-02-01T11:35:45;23.40;;;4.75;;
37701;SDS011;23548;51.196;6.838;2023-02-01T11:41:20;19.00;;;4.78;;
37701;SDS011;23548;51.196;6.838;2023-02-01T11:43:51;19.55;;;4.05;;
37701;SDS011;23548;51.196;6.838;2023-02-01T11:46:18;27.52;;;5.85;;
37701;SDS011;23548;51.196;6.838;2023-02-01T11:48:50;21.90;;;5.03;;
37701;SDS011;23548;51.196;6.838;2023-02-01T11:56:51;17.95;;;4.65;;
37701;SDS011;23548;51.196;6.838;2023-02-01T12:20:01;20.77;;;5.45;;
37701;SDS011;23548;51.196;6.838;2023-02-01T12:22:50;18.90;;;5.18;;
37701;SDS011;23548;51.196;6.838;2023-02-01T12:25:25;21.30;;;4.28;;
37701;SDS011;23548;51.196;6.838;2023-02-01T12:29:18;17.88;;;5.03;;
37701;SDS011;23548;51.196;6.838;2023-02-01T12:31:20;18.33;;;4.88;;
37701;SDS011;23548;51.196;6.838;2023-02-01T12:34:13;15.80;;;5.15;;
37701;SDS011;23548;51.196;6.838;2023-02-01T12:39:46;21.23;;;5.72;;
37701;SDS011;23548;51.196;6.838;2023-02-01T12:48:29;20.73;;;5.32;;
37701;SDS011;23548;51.196;6.838;2023-02-01T12:54:28;20.60;;;4.72;;
37701;SDS011;23548;51.196;6.838;2023-02-01T12:57:16;20.45;;;4.82;;
37701;SDS011;23548;51.196;6.838;2023-02-01T12:59:56;20.73;;;4.97;;
37701;SDS011;23548;51.196;6.838;2023-02-01T13:44:34;18.45;;;3.95;;
37701;SDS011;23548;51.196;6.838;2023-02-01T13:47:18;18.83;;;3.70;;
37701;SDS011;23548;51.196;6.838;2023-02-01T13:49:45;16.30;;;4.13;;
37701;SDS011;23548;51.196;6.838;2023-02-01T13:55:25;23.02;;;4.20;;
37701;SDS011;23548;51.196;6.838;2023-02-01T13:58:00;17.60;;;3.67;;
37701;SDS011;23548;51.196;6.838;2023-02-01T14:00:36;16.33;;;4.15;;
37701;SDS011;23548;51.196;6.838;2023-02-01T14:21:22;18.33;;;3.50;;
37701;SDS011;23548;51.196;6.838;2023-02-01T14:34:31;17.95;;;2.92;;
37701;SDS011;23548;51.196;6.838;2023-02-01T14:37:06;14.48;;;3.78;;
37701;SDS011;23548;51.196;6.838;2023-02-01T14:39:35;17.77;;;3.15;;
37701;SDS011;23548;51.196;6.838;2023-02-01T14:44:52;12.77;;;3.20;;
37701;SDS011;23548;51.196;6.838;2023-02-01T14:52:37;17.17;;;3.33;;
37701;SDS011;23548;51.196;6.838;2023-02-01T14:55:11;15.20;;;3.35;;
37701;SDS011;23548;51.196;6.838;2023-02-01T14:58:05;17.10;;;3.67;;
37701;SDS011;23548;51.196;6.838;2023-02-01T15:00:46;18.75;;;3.97;;
37701;SDS011;23548;51.196;6.838;2023-02-01T15:06:49;16.00;;;3.20;;
37701;SDS011;23548;51.196;6.838;2023-02-01T15:09:29;18.23;;;3.10;;
37701;SDS011;23548;51.196;6.838;2023-02-01T15:17:21;19.10;;;3.28;;
37701;SDS011;23548;51.196;6.838;2023-02-01T15:22:25;14.73;;;3.15;;
37701;SDS011;23548;51.196;6.838;2023-02-01T15:24:53;19.23;;;3.17;;
37701;SDS011;23548;51.196;6.838;2023-02-01T15:27:20;16.20;;;3.28;;
37701;SDS011;23548;51.196;6.838;2023-02-01T15:29:47;17.25;;;3.67;;
37701;SDS011;23548;51.196;6.838;2023-02-01T15:32:33;17.75;;;4.22;;
37701;SDS011;23548;51.196;6.838;2023-02-01T15:35:03;14.68;;;2.97;;
37701;SDS011;23548;51.196;6.838;2023-02-01T15:37:34;15.90;;;3.72;;
37701;SDS011;23548;51.196;6.838;2023-02-01T15:40:04;17.90;;;3.72;;
37701;SDS011;23548;51.196;6.838;2023-02-01T15:42:41;20.98;;;3.83;;
37701;SDS011;23548;51.196;6.838;2023-02-01T15:45:21;24.73;;;4.70;;
37701;SDS011;23548;51.196;6.838;2023-02-01T15:47:50;16.80;;;3.30;;
37701;SDS011;23548;51.196;6.838;2023-02-01T15:50:18;16.02;;;3.55;;
37701;SDS011;23548;51.196;6.838;2023-02-01T15:52:48;24.95;;;4.18;;
37701;SDS011;23548;51.196;6.838;2023-02-01T15:55:20;13.85;;;3.55;;
37701;SDS011;23548;51.196;6.838;2023-02-01T15:57:52;16.08;;;3.75;;
37701;SDS011;23548;51.196;6.838;2023-02-01T16:03:03;17.92;;;3.63;;
37701;SDS011;23548;51.196;6.838;2023-02-01T16:13:55;16.98;;;3.45;;
37701;SDS011;23548;51.196;6.838;2023-02-01T16:16:27;20.88;;;7.07;;
37701;SDS011;23548;51.196;6.838;2023-02-01T16:18:54;16.90;;;3.58;;
37701;SDS011;23548;51.196;6.838;2023-02-01T16:21:20;19.67;;;4.57;;
37701;SDS011;23548;51.196;6.838;2023-02-01T16:23:50;19.50;;;4.20;;
37701;SDS011;23548;51.196;6.838;2023-02-01T16:26:16;21.73;;;3.72;;
37701;SDS011;23548;51.196;6.838;2023-02-01T16:28:53;19.23;;;4.57;;
37701;SDS011;23548;51.196;6.838;2023-02-01T16:31:19;20.75;;;3.97;;
37701;SDS011;23548;51.196;6.838;2023-02-01T16:33:53;13.63;;;3.53;;
37701;SDS011;23548;51.196;6.838;2023-02-01T16:36:20;22.15;;;3.60;;
37701;SDS011;23548;51.196;6.838;2023-02-01T16:38:46;15.63;;;3.88;;
37701;SDS011;23548;51.196;6.838;2023-02-01T16:41:15;19.92;;;4.25;;
37701;SDS011;23548;51.196;6.838;2023-02-01T16:43:42;14.77;;;3.90;;
37701;SDS011;23548;51.196;6.838;2023-02-01T16:46:12;16.85;;;4.28;;
37701;SDS011;23548;51.196;6.838;2023-02-01T16:48:41;25.52;;;4.57;;
37701;SDS011;23548;51.196;6.838;2023-02-01T16:51:11;16.85;;;3.72;;
37701;SDS011;23548;51.196;6.838;2023-02-01T16:53:39;20.75;;;4.22;;
37701;SDS011;23548;51.196;6.838;2023-02-01T16:56:20;22.90;;;4.25;;
37701;SDS011;23548;51.196;6.838;2023-02-01T16:58:47;22.65;;;4.00;;
37701;SDS011;23548;51.196;6.838;2023-02-01T17:01:14;18.05;;;4.65;;
37701;SDS011;23548;51.196;6.838;2023-02-01T17:03:41;14.63;;;4.45;;
37701;SDS011;23548;51.196;6.838;2023-02-01T17:06:11;19.20;;;4.50;;
37701;SDS011;23548;51.196;6.838;2023-02-01T17:08:42;15.48;;;4.10;;
37701;SDS011;23548;51.196;6.838;2023-02-01T17:11:11;27.02;;;4.85;;
37701;SDS011;23548;51.196;6.838;2023-02-01T17:13:38;16.83;;;4.60;;
37701;SDS011;23548;51.196;6.838;2023-02-01T17:16:18;14.38;;;4.03;;
37701;SDS011;23548;51.196;6.838;2023-02-01T17:19:12;25.52;;;5.07;;
37701;SDS011;23548;51.196;6.838;2023-02-01T17:21:43;20.80;;;4.30;;
37701;SDS011;23548;51.196;6.838;2023-02-01T17:24:14;18.23;;;4.10;;
37701;SDS011;23548;51.196;6.838;2023-02-01T17:26:41;24.80;;;4.78;;
37701;SDS011;23548;51.196;6.838;2023-02-01T17:29:08;21.60;;;4.47;;
37701;SDS011;23548;51.196;6.838;2023-02-01T17:31:38;16.10;;;4.55;;
37701;SDS011;23548;51.196;6.838;2023-02-01T17:34:05;19.52;;;4.00;;
37701;SDS011;23548;51.196;6.838;2023-02-01T17:36:33;17.20;;;3.72;;
37701;SDS011;23548;51.196;6.838;2023-02-01T17:39:00;27.33;;;3.90;;
37701;SDS011;23548;51.196;6.838;2023-02-01T17:41:29;20.30;;;4.30;;
37701;SDS011;23548;51.196;6.838;2023-02-01T17:43:55;20.15;;;4.25;;
37701;SDS011;23548;51.196;6.838;2023-02-01T17:46:22;25.30;;;4.75;;
37701;SDS011;23548;51.196;6.838;2023-02-01T17:48:51;27.05;;;4.53;;
37701;SDS011;23548;51.196;6.838;2023-02-01T17:51:27;22.00;;;3.72;;
37701;SDS011;23548;51.196;6.838;2023-02-01T17:53:55;17.70;;;3.83;;
37701;SDS011;23548;51.196;6.838;2023-02-01T17:56:21;17.08;;;4.28;;
37701;SDS011;23548;51.196;6.838;2023-02-01T17:58:49;13.18;;;3.75;;